PWSweather.com
Personal Weather Stations
Station Observations
SUBOTICARS
SuboticaYU

SuboticaYU

Lat: 46.1296717, Lon: 19.641551

Elevation: 361

Station Type: Nexus

http://sumeteo.info

High Low Average
Temperature 92.5°F33.6°C 59.7°F15.4°C 76.4°F24.7°C
Dew Point 64.6°F18.1°C 51.8°F11.0°C 56.5°F13.6°C
Winds 6.9 mph 11.1 kmh Calm Calm 2.0 mph E3.2 kmh E
Wind Gusts 6.9 mph11.1 kmh -- 2.0 mph3.2 kmh
Humidity 86% 27% 55%
Pressure 29.70 in1005.8 mb 29.61 in1002.7 mb -
Precipitation 0.00 in0.0 mm - -
Hour Temp Dew Point Humidity Winds Wind Gusts Pressure Precip Precip Rate Daily Precip Total
12:00 AM 63.3°F17.4°C 54.9°F12.7°C 74% Calm Calm -- 29.69 in1005.4 mb - 0.00 in0.0 mm 0.00 in0.0 mm
12:10 AM 63.1°F17.3°C 55.0°F12.8°C 75% Calm Calm -- 29.69 in1005.4 mb - 0.00 in0.0 mm 0.00 in0.0 mm
12:15 AM 63.0°F17.2°C 54.9°F12.7°C 75% Calm Calm -- 29.69 in1005.4 mb - 0.00 in0.0 mm 0.00 in0.0 mm
12:20 AM 62.6°F17.0°C 54.6°F12.6°C 75% Calm Calm -- 29.69 in1005.4 mb - 0.00 in0.0 mm 0.00 in0.0 mm
12:25 AM 62.6°F17.0°C 54.9°F12.7°C 76% Calm Calm -- 29.69 in1005.4 mb - 0.00 in0.0 mm 0.00 in0.0 mm
12:30 AM 62.4°F16.9°C 55.5°F13.1°C 78% Calm Calm -- 29.69 in1005.4 mb - 0.00 in0.0 mm 0.00 in0.0 mm
12:35 AM 62.4°F16.9°C 55.5°F13.1°C 78% Calm Calm -- 29.69 in1005.4 mb - 0.00 in0.0 mm 0.00 in0.0 mm
12:40 AM 62.2°F16.8°C 55.6°F13.1°C 79% 1.2 mph N1.9 kmh N 1.2 mph1.9 kmh 29.69 in1005.4 mb - 0.00 in0.0 mm 0.00 in0.0 mm
12:45 AM 62.2°F16.8°C 55.6°F13.1°C 79% Calm Calm -- 29.69 in1005.4 mb - 0.00 in0.0 mm 0.00 in0.0 mm
12:50 AM 62.1°F16.7°C 55.5°F13.1°C 79% Calm Calm -- 29.68 in1005.1 mb - 0.00 in0.0 mm 0.00 in0.0 mm
12:55 AM 61.9°F16.6°C 55.3°F12.9°C 79% Calm Calm -- 29.68 in1005.1 mb - 0.00 in0.0 mm 0.00 in0.0 mm
01:00 AM 61.7°F16.5°C 55.1°F12.8°C 79% Calm Calm -- 29.68 in1005.1 mb - 0.00 in0.0 mm 0.00 in0.0 mm
01:10 AM 61.3°F16.3°C 54.8°F12.7°C 79% Calm Calm -- 29.68 in1005.1 mb - 0.00 in0.0 mm 0.00 in0.0 mm
01:15 AM 61.3°F16.3°C 55.1°F12.8°C 80% Calm Calm -- 29.68 in1005.1 mb - 0.00 in0.0 mm 0.00 in0.0 mm
01:20 AM 61.2°F16.2°C 55.3°F12.9°C 81% Calm Calm -- 29.68 in1005.1 mb - 0.00 in0.0 mm 0.00 in0.0 mm
01:25 AM 61.2°F16.2°C 55.6°F13.1°C 82% Calm Calm -- 29.68 in1005.1 mb - 0.00 in0.0 mm 0.00 in0.0 mm
01:30 AM 61.0°F16.1°C 55.1°F12.8°C 81% Calm Calm -- 29.68 in1005.1 mb - 0.00 in0.0 mm 0.00 in0.0 mm
01:35 AM 60.8°F16.0°C 54.9°F12.7°C 81% Calm Calm -- 29.67 in1004.7 mb - 0.00 in0.0 mm 0.00 in0.0 mm
01:40 AM 60.8°F16.0°C 54.6°F12.6°C 80% Calm Calm -- 29.67 in1004.7 mb - 0.00 in0.0 mm 0.00 in0.0 mm
01:45 AM 60.6°F15.9°C 54.4°F12.4°C 80% Calm Calm -- 29.67 in1004.7 mb - 0.00 in0.0 mm 0.00 in0.0 mm
01:50 AM 60.4°F15.8°C 54.2°F12.3°C 80% Calm Calm -- 29.68 in1005.1 mb - 0.00 in0.0 mm 0.00 in0.0 mm
01:55 AM 60.3°F15.7°C 54.1°F12.3°C 80% Calm Calm -- 29.68 in1005.1 mb - 0.00 in0.0 mm 0.00 in0.0 mm
02:00 AM 60.1°F15.6°C 53.9°F12.2°C 80% Calm Calm -- 29.67 in1004.7 mb - 0.00 in0.0 mm 0.00 in0.0 mm
02:10 AM 59.9°F15.5°C 54.7°F12.6°C 83% 2.3 mph N3.7 kmh N 2.3 mph3.7 kmh 29.67 in1004.7 mb - 0.00 in0.0 mm 0.00 in0.0 mm
02:15 AM 60.1°F15.6°C 55.9°F13.3°C 86% 2.3 mph NNW3.7 kmh NNW 2.3 mph3.7 kmh 29.67 in1004.7 mb - 0.00 in0.0 mm 0.00 in0.0 mm
02:20 AM 59.9°F15.5°C 54.7°F12.6°C 83% 2.3 mph NNW3.7 kmh NNW 2.3 mph3.7 kmh 29.67 in1004.7 mb - 0.00 in0.0 mm 0.00 in0.0 mm
02:25 AM 59.9°F15.5°C 54.1°F12.3°C 81% 2.3 mph NNE3.7 kmh NNE 3.5 mph5.6 kmh 29.67 in1004.7 mb - 0.00 in0.0 mm 0.00 in0.0 mm
02:30 AM 59.7°F15.4°C 53.9°F12.2°C 81% 2.3 mph NNE3.7 kmh NNE 3.5 mph5.6 kmh 29.67 in1004.7 mb - 0.00 in0.0 mm 0.00 in0.0 mm
02:35 AM 59.7°F15.4°C 54.2°F12.3°C 82% 3.5 mph NNE5.6 kmh NNE 3.5 mph5.6 kmh 29.67 in1004.7 mb - 0.00 in0.0 mm 0.00 in0.0 mm
02:40 AM 60.7°F15.9°C 54.8°F12.7°C 81% 3.5 mph NNE5.6 kmh NNE 2.3 mph3.7 kmh 29.67 in1004.7 mb - 0.00 in0.0 mm 0.00 in0.0 mm
02:45 AM 61.9°F16.6°C 55.6°F13.1°C 80% 3.5 mph NNE5.6 kmh NNE 3.5 mph5.6 kmh 29.67 in1004.7 mb - 0.00 in0.0 mm 0.00 in0.0 mm
02:50 AM 62.4°F16.9°C 55.8°F13.2°C 79% 3.5 mph NNE5.6 kmh NNE 3.5 mph5.6 kmh 29.67 in1004.7 mb - 0.00 in0.0 mm 0.00 in0.0 mm
02:55 AM 62.2°F16.8°C 55.3°F12.9°C 78% 3.5 mph NE5.6 kmh NE 3.5 mph5.6 kmh 29.67 in1004.7 mb - 0.00 in0.0 mm 0.00 in0.0 mm
03:00 AM 62.8°F17.1°C 55.8°F13.2°C 78% 3.5 mph NNE5.6 kmh NNE 3.5 mph5.6 kmh 29.67 in1004.7 mb - 0.00 in0.0 mm 0.00 in0.0 mm
03:10 AM 62.6°F17.0°C 54.9°F12.7°C 76% 2.3 mph NNE3.7 kmh NNE 3.5 mph5.6 kmh 29.67 in1004.7 mb - 0.00 in0.0 mm 0.00 in0.0 mm
03:15 AM 62.4°F16.9°C 55.5°F13.1°C 78% 2.3 mph NE3.7 kmh NE 3.5 mph5.6 kmh 29.67 in1004.7 mb - 0.00 in0.0 mm 0.00 in0.0 mm
03:20 AM 62.2°F16.8°C 55.3°F12.9°C 78% 2.3 mph NNE3.7 kmh NNE 2.3 mph3.7 kmh 29.67 in1004.7 mb - 0.00 in0.0 mm 0.00 in0.0 mm
03:25 AM 61.9°F16.6°C 55.0°F12.8°C 78% 2.3 mph NNE3.7 kmh NNE 2.3 mph3.7 kmh 29.67 in1004.7 mb - 0.00 in0.0 mm 0.00 in0.0 mm
03:30 AM 61.8°F16.6°C 54.8°F12.7°C 78% 2.3 mph NNE3.7 kmh NNE 2.3 mph3.7 kmh 29.67 in1004.7 mb - 0.00 in0.0 mm 0.00 in0.0 mm
03:35 AM 61.6°F16.4°C 54.7°F12.6°C 78% Calm Calm 1.2 mph1.9 kmh 29.67 in1004.7 mb - 0.00 in0.0 mm 0.00 in0.0 mm
03:40 AM 61.3°F16.3°C 54.4°F12.4°C 78% Calm Calm -- 29.67 in1004.7 mb - 0.00 in0.0 mm 0.00 in0.0 mm
03:45 AM 61.2°F16.2°C 54.6°F12.6°C 79% Calm Calm -- 29.67 in1004.7 mb - 0.00 in0.0 mm 0.00 in0.0 mm
03:50 AM 60.8°F16.0°C 54.2°F12.3°C 79% Calm Calm -- 29.67 in1004.7 mb - 0.00 in0.0 mm 0.00 in0.0 mm
03:55 AM 60.8°F16.0°C 54.2°F12.3°C 79% 2.3 mph NNE3.7 kmh NNE 2.3 mph3.7 kmh 29.67 in1004.7 mb - 0.00 in0.0 mm 0.00 in0.0 mm
04:00 AM 60.8°F16.0°C 54.6°F12.6°C 80% 1.2 mph NNE1.9 kmh NNE 1.2 mph1.9 kmh 29.67 in1004.7 mb - 0.00 in0.0 mm 0.00 in0.0 mm
04:10 AM 60.3°F15.7°C 53.7°F12.1°C 79% 2.3 mph NNE3.7 kmh NNE 2.3 mph3.7 kmh 29.67 in1004.7 mb - 0.00 in0.0 mm 0.00 in0.0 mm
04:15 AM 60.3°F15.7°C 54.1°F12.3°C 80% 3.5 mph NNE5.6 kmh NNE 3.5 mph5.6 kmh 29.67 in1004.7 mb - 0.00 in0.0 mm 0.00 in0.0 mm
04:20 AM 60.3°F15.7°C 54.1°F12.3°C 80% 3.5 mph NNE5.6 kmh NNE 3.5 mph5.6 kmh 29.67 in1004.7 mb - 0.00 in0.0 mm 0.00 in0.0 mm
04:25 AM 60.4°F15.8°C 54.2°F12.3°C 80% 2.3 mph NNE3.7 kmh NNE 2.3 mph3.7 kmh 29.67 in1004.7 mb - 0.00 in0.0 mm 0.00 in0.0 mm
04:30 AM 60.4°F15.8°C 54.2°F12.3°C 80% 2.3 mph NNE3.7 kmh NNE 2.3 mph3.7 kmh 29.68 in1005.1 mb - 0.00 in0.0 mm 0.00 in0.0 mm
04:35 AM 60.3°F15.7°C 54.1°F12.3°C 80% 2.3 mph NE3.7 kmh NE 3.5 mph5.6 kmh 29.68 in1005.1 mb - 0.00 in0.0 mm 0.00 in0.0 mm
04:40 AM 60.6°F15.9°C 54.4°F12.4°C 80% 3.5 mph NE5.6 kmh NE 2.3 mph3.7 kmh 29.68 in1005.1 mb - 0.00 in0.0 mm 0.00 in0.0 mm
04:45 AM 60.8°F16.0°C 54.6°F12.6°C 80% 3.5 mph NE5.6 kmh NE 3.5 mph5.6 kmh 29.68 in1005.1 mb - 0.00 in0.0 mm 0.00 in0.0 mm
04:50 AM 61.2°F16.2°C 54.9°F12.7°C 80% 3.5 mph NE5.6 kmh NE 3.5 mph5.6 kmh 29.68 in1005.1 mb - 0.00 in0.0 mm 0.00 in0.0 mm
04:55 AM 61.3°F16.3°C 54.8°F12.7°C 79% 2.3 mph NNE3.7 kmh NNE 3.5 mph5.6 kmh 29.68 in1005.1 mb - 0.00 in0.0 mm 0.00 in0.0 mm
05:00 AM 61.5°F16.4°C 54.9°F12.7°C 79% 2.3 mph NE3.7 kmh NE 3.5 mph5.6 kmh 29.68 in1005.1 mb - 0.00 in0.0 mm 0.00 in0.0 mm
05:10 AM 61.5°F16.4°C 55.3°F12.9°C 80% 2.3 mph NE3.7 kmh NE 3.5 mph5.6 kmh 29.67 in1004.7 mb - 0.00 in0.0 mm 0.00 in0.0 mm
05:15 AM 61.3°F16.3°C 55.1°F12.8°C 80% 2.3 mph NNE3.7 kmh NNE 2.3 mph3.7 kmh 29.67 in1004.7 mb - 0.00 in0.0 mm 0.00 in0.0 mm
05:20 AM 61.5°F16.4°C 55.3°F12.9°C 80% 3.5 mph NNE5.6 kmh NNE 3.5 mph5.6 kmh 29.67 in1004.7 mb - 0.00 in0.0 mm 0.00 in0.0 mm
05:25 AM 62.2°F16.8°C 55.9°F13.3°C 80% 2.3 mph NE3.7 kmh NE 3.5 mph5.6 kmh 29.67 in1004.7 mb - 0.00 in0.0 mm 0.00 in0.0 mm
05:30 AM 62.2°F16.8°C 56.0°F13.3°C 80% 3.5 mph NNE5.6 kmh NNE 3.5 mph5.6 kmh 29.68 in1005.1 mb - 0.00 in0.0 mm 0.00 in0.0 mm
05:35 AM 62.7°F17.1°C 55.7°F13.2°C 78% 2.3 mph NNE3.7 kmh NNE 3.5 mph5.6 kmh 29.68 in1005.1 mb - 0.00 in0.0 mm 0.00 in0.0 mm
05:40 AM 63.0°F17.2°C 56.0°F13.3°C 78% 2.3 mph NNE3.7 kmh NNE 3.5 mph5.6 kmh 29.68 in1005.1 mb - 0.00 in0.0 mm 0.00 in0.0 mm
05:45 AM 63.3°F17.4°C 56.3°F13.5°C 78% 2.3 mph NE3.7 kmh NE 3.5 mph5.6 kmh 29.68 in1005.1 mb - 0.00 in0.0 mm 0.00 in0.0 mm
05:50 AM 63.5°F17.5°C 56.5°F13.6°C 78% 1.2 mph NE1.9 kmh NE 1.2 mph1.9 kmh 29.68 in1005.1 mb - 0.00 in0.0 mm 0.00 in0.0 mm
05:55 AM 64.0°F17.8°C 57.0°F13.9°C 78% 1.2 mph NE1.9 kmh NE 2.3 mph3.7 kmh 29.68 in1005.1 mb - 0.00 in0.0 mm 0.00 in0.0 mm
06:00 AM 64.6°F18.1°C 57.6°F14.2°C 78% 1.2 mph NNE1.9 kmh NNE 2.3 mph3.7 kmh 29.68 in1005.1 mb - 0.00 in0.0 mm 0.00 in0.0 mm
06:10 AM 65.5°F18.6°C 58.4°F14.7°C 78% 1.2 mph NE1.9 kmh NE 1.2 mph1.9 kmh 29.68 in1005.1 mb - 0.00 in0.0 mm 0.00 in0.0 mm
06:15 AM 65.7°F18.7°C 57.9°F14.4°C 76% 1.2 mph NE1.9 kmh NE 2.3 mph3.7 kmh 29.68 in1005.1 mb - 0.00 in0.0 mm 0.00 in0.0 mm
06:20 AM 66.6°F19.2°C 58.4°F14.7°C 75% 1.2 mph NNE1.9 kmh NNE 2.3 mph3.7 kmh 29.68 in1005.1 mb - 0.00 in0.0 mm 0.00 in0.0 mm
06:25 AM 67.1°F19.5°C 58.9°F14.9°C 75% 2.3 mph NE3.7 kmh NE 2.3 mph3.7 kmh 29.68 in1005.1 mb - 0.00 in0.0 mm 0.00 in0.0 mm
06:30 AM 67.9°F19.9°C 58.9°F14.9°C 73% 2.3 mph NE3.7 kmh NE 2.3 mph3.7 kmh 29.68 in1005.1 mb - 0.00 in0.0 mm 0.00 in0.0 mm
06:35 AM 68.5°F20.3°C 59.5°F15.3°C 73% 2.3 mph NE3.7 kmh NE 3.5 mph5.6 kmh 29.68 in1005.1 mb - 0.00 in0.0 mm 0.00 in0.0 mm
06:40 AM 69.3°F20.7°C 59.8°F15.4°C 72% 2.3 mph NNE3.7 kmh NNE 2.3 mph3.7 kmh 29.68 in1005.1 mb - 0.00 in0.0 mm 0.00 in0.0 mm
06:45 AM 70.3°F21.3°C 60.5°F15.8°C 71% 2.3 mph ENE3.7 kmh ENE 3.5 mph5.6 kmh 29.68 in1005.1 mb - 0.00 in0.0 mm 0.00 in0.0 mm
06:50 AM 70.9°F21.6°C 61.0°F16.1°C 71% 2.3 mph ENE3.7 kmh ENE 2.3 mph3.7 kmh 29.68 in1005.1 mb - 0.00 in0.0 mm 0.00 in0.0 mm
06:55 AM 71.9°F22.2°C 61.2°F16.2°C 69% 2.3 mph NE3.7 kmh NE 3.5 mph5.6 kmh 29.68 in1005.1 mb - 0.00 in0.0 mm 0.00 in0.0 mm
07:00 AM 72.4°F22.4°C 61.2°F16.2°C 68% 2.3 mph NNE3.7 kmh NNE 2.3 mph3.7 kmh 29.68 in1005.1 mb - 0.00 in0.0 mm 0.00 in0.0 mm
07:10 AM 73.6°F23.1°C 61.9°F16.6°C 67% 3.5 mph NE5.6 kmh NE 3.5 mph5.6 kmh 29.68 in1005.1 mb - 0.00 in0.0 mm 0.00 in0.0 mm
07:15 AM 74.1°F23.4°C 61.6°F16.4°C 65% 3.5 mph NNE5.6 kmh NNE 3.5 mph5.6 kmh 29.68 in1005.1 mb - 0.00 in0.0 mm 0.00 in0.0 mm
07:20 AM 74.7°F23.7°C 62.1°F16.7°C 65% 1.2 mph NNE1.9 kmh NNE 2.3 mph3.7 kmh 29.69 in1005.4 mb - 0.00 in0.0 mm 0.00 in0.0 mm
07:25 AM 75.2°F24.0°C 61.3°F16.3°C 62% 1.2 mph NNE1.9 kmh NNE 2.3 mph3.7 kmh 29.69 in1005.4 mb - 0.00 in0.0 mm 0.00 in0.0 mm
07:30 AM 75.5°F24.2°C 61.5°F16.4°C 62% 2.3 mph ENE3.7 kmh ENE 3.5 mph5.6 kmh 29.69 in1005.4 mb - 0.00 in0.0 mm 0.00 in0.0 mm
07:35 AM 76.0°F24.4°C 62.0°F16.7°C 62% 3.5 mph N5.6 kmh N 3.5 mph5.6 kmh 29.69 in1005.4 mb - 0.00 in0.0 mm 0.00 in0.0 mm
07:40 AM 76.8°F24.9°C 62.8°F17.1°C 62% 3.5 mph N5.6 kmh N 3.5 mph5.6 kmh 29.69 in1005.4 mb - 0.00 in0.0 mm 0.00 in0.0 mm
07:45 AM 77.4°F25.2°C 62.9°F17.2°C 61% 2.3 mph NE3.7 kmh NE 2.3 mph3.7 kmh 29.69 in1005.4 mb - 0.00 in0.0 mm 0.00 in0.0 mm
07:50 AM 77.7°F25.4°C 62.7°F17.1°C 60% 1.2 mph ENE1.9 kmh ENE 3.5 mph5.6 kmh 29.69 in1005.4 mb - 0.00 in0.0 mm 0.00 in0.0 mm
07:55 AM 78.5°F25.8°C 63.5°F17.5°C 60% 2.3 mph ENE3.7 kmh ENE 3.5 mph5.6 kmh 29.69 in1005.4 mb - 0.00 in0.0 mm 0.00 in0.0 mm
08:00 AM 78.9°F26.1°C 62.3°F16.8°C 57% 2.3 mph ENE3.7 kmh ENE 3.5 mph5.6 kmh 29.70 in1005.8 mb - 0.00 in0.0 mm 0.00 in0.0 mm
08:10 AM 79.7°F26.5°C 62.6°F17.0°C 56% 2.3 mph NE3.7 kmh NE 3.5 mph5.6 kmh 29.70 in1005.8 mb - 0.00 in0.0 mm 0.00 in0.0 mm
08:15 AM 80.4°F26.9°C 63.3°F17.4°C 56% 2.3 mph E3.7 kmh E 2.3 mph3.7 kmh 29.70 in1005.8 mb - 0.00 in0.0 mm 0.00 in0.0 mm
08:20 AM 81.3°F27.4°C 64.1°F17.8°C 56% 2.3 mph NNW3.7 kmh NNW 3.5 mph5.6 kmh 29.69 in1005.4 mb - 0.00 in0.0 mm 0.00 in0.0 mm
08:25 AM 81.8°F27.7°C 64.1°F17.8°C 55% 1.2 mph E1.9 kmh E 2.3 mph3.7 kmh 29.69 in1005.4 mb - 0.00 in0.0 mm 0.00 in0.0 mm
08:30 AM 82.4°F28.0°C 64.6°F18.1°C 55% 1.2 mph ESE1.9 kmh ESE 1.2 mph1.9 kmh 29.70 in1005.8 mb - 0.00 in0.0 mm 0.00 in0.0 mm
08:35 AM 82.6°F28.1°C 63.7°F17.6°C 53% Calm Calm 2.3 mph3.7 kmh 29.70 in1005.8 mb - 0.00 in0.0 mm 0.00 in0.0 mm
08:40 AM 83.1°F28.4°C 64.2°F17.9°C 53% 2.3 mph NNE3.7 kmh NNE 2.3 mph3.7 kmh 29.70 in1005.8 mb - 0.00 in0.0 mm 0.00 in0.0 mm
08:45 AM 83.5°F28.6°C 64.0°F17.8°C 52% 1.2 mph NNE1.9 kmh NNE 2.3 mph3.7 kmh 29.70 in1005.8 mb - 0.00 in0.0 mm 0.00 in0.0 mm
08:50 AM 84.0°F28.9°C 63.9°F17.7°C 51% 2.3 mph NE3.7 kmh NE 3.5 mph5.6 kmh 29.70 in1005.8 mb - 0.00 in0.0 mm 0.00 in0.0 mm
08:55 AM 84.4°F29.1°C 63.8°F17.7°C 50% 2.3 mph ESE3.7 kmh ESE 3.5 mph5.6 kmh 29.70 in1005.8 mb - 0.00 in0.0 mm 0.00 in0.0 mm
09:00 AM 84.9°F29.4°C 64.2°F17.9°C 50% 2.3 mph ESE3.7 kmh ESE 2.3 mph3.7 kmh 29.70 in1005.8 mb - 0.00 in0.0 mm 0.00 in0.0 mm
09:10 AM 85.3°F29.6°C 63.4°F17.4°C 48% 2.3 mph NE3.7 kmh NE 3.5 mph5.6 kmh 29.70 in1005.8 mb - 0.00 in0.0 mm 0.00 in0.0 mm
09:15 AM 85.8°F29.9°C 63.9°F17.7°C 48% 2.3 mph SSE3.7 kmh SSE 2.3 mph3.7 kmh 29.69 in1005.4 mb - 0.00 in0.0 mm 0.00 in0.0 mm
09:20 AM 86.0°F30.0°C 62.8°F17.1°C 46% 2.3 mph NNE3.7 kmh NNE 2.3 mph3.7 kmh 29.69 in1005.4 mb - 0.00 in0.0 mm 0.00 in0.0 mm
09:25 AM 86.2°F30.1°C 61.7°F16.5°C 44% 2.3 mph NNE3.7 kmh NNE 2.3 mph3.7 kmh 29.69 in1005.4 mb - 0.00 in0.0 mm 0.00 in0.0 mm
09:30 AM 86.2°F30.1°C 63.0°F17.2°C 46% 3.5 mph ENE5.6 kmh ENE 4.6 mph7.4 kmh 29.70 in1005.8 mb - 0.00 in0.0 mm 0.00 in0.0 mm
09:35 AM 86.4°F30.2°C 62.5°F16.9°C 45% 3.5 mph NNE5.6 kmh NNE 3.5 mph5.6 kmh 29.70 in1005.8 mb - 0.00 in0.0 mm 0.00 in0.0 mm
09:40 AM 86.0°F30.0°C 62.2°F16.8°C 45% 3.5 mph NNE5.6 kmh NNE 3.5 mph5.6 kmh 29.70 in1005.8 mb - 0.00 in0.0 mm 0.00 in0.0 mm
09:45 AM 86.7°F30.4°C 62.2°F16.8°C 44% 2.3 mph WSW3.7 kmh WSW 2.3 mph3.7 kmh 29.70 in1005.8 mb - 0.00 in0.0 mm 0.00 in0.0 mm
09:50 AM 86.7°F30.4°C 62.2°F16.8°C 44% 2.3 mph ENE3.7 kmh ENE 3.5 mph5.6 kmh 29.70 in1005.8 mb - 0.00 in0.0 mm 0.00 in0.0 mm
09:55 AM 87.1°F30.6°C 62.5°F16.9°C 44% 4.6 mph ENE7.4 kmh ENE 3.5 mph5.6 kmh 29.70 in1005.8 mb - 0.00 in0.0 mm 0.00 in0.0 mm
10:00 AM 87.0°F30.6°C 61.8°F16.6°C 43% 2.3 mph N3.7 kmh N 2.3 mph3.7 kmh 29.70 in1005.8 mb - 0.00 in0.0 mm 0.00 in0.0 mm
10:10 AM 87.3°F30.7°C 62.0°F16.7°C 43% 3.5 mph WSW5.6 kmh WSW 3.5 mph5.6 kmh 29.70 in1005.8 mb - 0.00 in0.0 mm 0.00 in0.0 mm
10:15 AM 88.2°F31.2°C 62.8°F17.1°C 43% 2.3 mph NE3.7 kmh NE 3.5 mph5.6 kmh 29.69 in1005.4 mb - 0.00 in0.0 mm 0.00 in0.0 mm
10:20 AM 88.3°F31.3°C 62.3°F16.8°C 42% 3.5 mph ESE5.6 kmh ESE 3.5 mph5.6 kmh 29.69 in1005.4 mb - 0.00 in0.0 mm 0.00 in0.0 mm
10:25 AM 88.4°F31.3°C 61.7°F16.5°C 41% 2.3 mph ENE3.7 kmh ENE 3.5 mph5.6 kmh 29.69 in1005.4 mb - 0.00 in0.0 mm 0.00 in0.0 mm
10:30 AM 88.4°F31.3°C 61.0°F16.1°C 40% 1.2 mph NNW1.9 kmh NNW 3.5 mph5.6 kmh 29.69 in1005.4 mb - 0.00 in0.0 mm 0.00 in0.0 mm
10:35 AM 88.2°F31.2°C 60.1°F15.6°C 39% 2.3 mph N3.7 kmh N 2.3 mph3.7 kmh 29.69 in1005.4 mb - 0.00 in0.0 mm 0.00 in0.0 mm
10:40 AM 88.7°F31.5°C 60.6°F15.9°C 39% 2.3 mph ESE3.7 kmh ESE 2.3 mph3.7 kmh 29.69 in1005.4 mb - 0.00 in0.0 mm 0.00 in0.0 mm
10:45 AM 89.1°F31.7°C 60.9°F16.1°C 39% 2.3 mph S3.7 kmh S 3.5 mph5.6 kmh 29.69 in1005.4 mb - 0.00 in0.0 mm 0.00 in0.0 mm
10:50 AM 88.3°F31.3°C 58.7°F14.8°C 37% 2.3 mph S3.7 kmh S 3.5 mph5.6 kmh 29.69 in1005.4 mb - 0.00 in0.0 mm 0.00 in0.0 mm
10:55 AM 88.7°F31.5°C 59.8°F15.4°C 38% 2.3 mph NNE3.7 kmh NNE 3.5 mph5.6 kmh 29.69 in1005.4 mb - 0.00 in0.0 mm 0.00 in0.0 mm
11:00 AM 89.4°F31.9°C 59.7°F15.4°C 37% 2.3 mph S3.7 kmh S 2.3 mph3.7 kmh 29.68 in1005.1 mb - 0.00 in0.0 mm 0.00 in0.0 mm
11:10 AM 88.7°F31.5°C 55.9°F13.3°C 33% 4.6 mph NNE7.4 kmh NNE 5.8 mph9.3 kmh 29.68 in1005.1 mb - 0.00 in0.0 mm 0.00 in0.0 mm
11:15 AM 88.3°F31.3°C 57.2°F14.0°C 35% 4.6 mph NNE7.4 kmh NNE 5.8 mph9.3 kmh 29.68 in1005.1 mb - 0.00 in0.0 mm 0.00 in0.0 mm
11:20 AM 89.4°F31.9°C 58.2°F14.6°C 35% 4.6 mph NNE7.4 kmh NNE 5.8 mph9.3 kmh 29.68 in1005.1 mb - 0.00 in0.0 mm 0.00 in0.0 mm
11:25 AM 89.2°F31.8°C 54.6°F12.6°C 31% 4.6 mph NE7.4 kmh NE 4.6 mph7.4 kmh 29.68 in1005.1 mb - 0.00 in0.0 mm 0.00 in0.0 mm
11:30 AM 89.6°F32.0°C 55.0°F12.8°C 31% 4.6 mph NE7.4 kmh NE 4.6 mph7.4 kmh 29.68 in1005.1 mb - 0.00 in0.0 mm 0.00 in0.0 mm
11:35 AM 89.6°F32.0°C 55.0°F12.8°C 31% 4.6 mph NE7.4 kmh NE 4.6 mph7.4 kmh 29.69 in1005.4 mb - 0.00 in0.0 mm 0.00 in0.0 mm
11:40 AM 88.9°F31.6°C 52.5°F11.4°C 29% 4.6 mph NE7.4 kmh NE 4.6 mph7.4 kmh 29.69 in1005.4 mb - 0.00 in0.0 mm 0.00 in0.0 mm
11:45 AM 90.3°F32.4°C 55.6°F13.1°C 31% 2.3 mph N3.7 kmh N 3.5 mph5.6 kmh 29.68 in1005.1 mb - 0.00 in0.0 mm 0.00 in0.0 mm
11:50 AM 90.7°F32.6°C 55.0°F12.8°C 30% 3.5 mph NNE5.6 kmh NNE 5.8 mph9.3 kmh 29.68 in1005.1 mb - 0.00 in0.0 mm 0.00 in0.0 mm
11:55 AM 90.4°F32.4°C 52.9°F11.6°C 28% 3.5 mph NNE5.6 kmh NNE 5.8 mph9.3 kmh 29.68 in1005.1 mb - 0.00 in0.0 mm 0.00 in0.0 mm
12:00 PM 91.1°F32.8°C 55.3°F12.9°C 30% 3.5 mph NNE5.6 kmh NNE 5.8 mph9.3 kmh 29.68 in1005.1 mb - 0.00 in0.0 mm 0.00 in0.0 mm
12:10 PM 91.0°F32.8°C 53.4°F11.9°C 28% 3.5 mph NNE5.6 kmh NNE 5.8 mph9.3 kmh 29.68 in1005.1 mb - 0.00 in0.0 mm 0.00 in0.0 mm
12:15 PM 91.6°F33.1°C 56.7°F13.7°C 31% 2.3 mph WSW3.7 kmh WSW 2.3 mph3.7 kmh 29.68 in1005.1 mb - 0.00 in0.0 mm 0.00 in0.0 mm
12:20 PM 91.7°F33.2°C 56.7°F13.7°C 31% 2.3 mph WSW3.7 kmh WSW 2.3 mph3.7 kmh 29.68 in1005.1 mb - 0.00 in0.0 mm 0.00 in0.0 mm
12:25 PM 91.7°F33.2°C 55.8°F13.2°C 30% 2.3 mph WSW3.7 kmh WSW 2.3 mph3.7 kmh 29.68 in1005.1 mb - 0.00 in0.0 mm 0.00 in0.0 mm
12:30 PM 92.1°F33.4°C 56.2°F13.4°C 30% 2.3 mph WSW3.7 kmh WSW 2.3 mph3.7 kmh 29.67 in1004.7 mb - 0.00 in0.0 mm 0.00 in0.0 mm
12:35 PM 91.2°F32.9°C 55.5°F13.1°C 30% 3.5 mph E5.6 kmh E 3.5 mph5.6 kmh 29.67 in1004.7 mb - 0.00 in0.0 mm 0.00 in0.0 mm
12:40 PM 91.9°F33.3°C 56.1°F13.4°C 30% 3.5 mph ENE5.6 kmh ENE 3.5 mph5.6 kmh 29.67 in1004.7 mb - 0.00 in0.0 mm 0.00 in0.0 mm
12:45 PM 92.5°F33.6°C 56.5°F13.6°C 30% 3.5 mph ENE5.6 kmh ENE 3.5 mph5.6 kmh 29.67 in1004.7 mb - 0.00 in0.0 mm 0.00 in0.0 mm
12:50 PM 92.2°F33.4°C 54.4°F12.4°C 28% 5.8 mph NNW9.3 kmh NNW 5.8 mph9.3 kmh 29.67 in1004.7 mb - 0.00 in0.0 mm 0.00 in0.0 mm
12:55 PM 91.5°F33.1°C 53.8°F12.1°C 28% 5.8 mph NNW9.3 kmh NNW 5.8 mph9.3 kmh 29.67 in1004.7 mb - 0.00 in0.0 mm 0.00 in0.0 mm
01:00 PM 91.6°F33.1°C 53.9°F12.2°C 28% 3.5 mph ENE5.6 kmh ENE 2.3 mph3.7 kmh 29.67 in1004.7 mb - 0.00 in0.0 mm 0.00 in0.0 mm
01:10 PM 91.9°F33.3°C 53.2°F11.8°C 27% 3.5 mph ENE5.6 kmh ENE 2.3 mph3.7 kmh 29.66 in1004.4 mb - 0.00 in0.0 mm 0.00 in0.0 mm
01:15 PM 91.9°F33.3°C 53.2°F11.8°C 27% 6.9 mph NW11.1 kmh NW 6.9 mph11.1 kmh 29.66 in1004.4 mb - 0.00 in0.0 mm 0.00 in0.0 mm
01:20 PM 91.9°F33.3°C 54.1°F12.3°C 28% 6.9 mph NW11.1 kmh NW 6.9 mph11.1 kmh 29.65 in1004.1 mb - 0.00 in0.0 mm 0.00 in0.0 mm
01:25 PM 91.9°F33.3°C 53.1°F11.7°C 27% 3.5 mph NE5.6 kmh NE 2.3 mph3.7 kmh 29.65 in1004.1 mb - 0.00 in0.0 mm 0.00 in0.0 mm
01:30 PM 92.5°F33.6°C 54.6°F12.6°C 28% 2.3 mph ENE3.7 kmh ENE 2.3 mph3.7 kmh 29.65 in1004.1 mb - 0.00 in0.0 mm 0.00 in0.0 mm
01:35 PM 91.9°F33.3°C 54.2°F12.3°C 28% 3.5 mph NNE5.6 kmh NNE 3.5 mph5.6 kmh 29.66 in1004.4 mb - 0.00 in0.0 mm 0.00 in0.0 mm
01:40 PM 92.3°F33.5°C 55.4°F13.0°C 29% 2.3 mph NE3.7 kmh NE 3.5 mph5.6 kmh 29.66 in1004.4 mb - 0.00 in0.0 mm 0.00 in0.0 mm
01:45 PM 92.1°F33.4°C 54.3°F12.4°C 28% 3.5 mph NE5.6 kmh NE 4.6 mph7.4 kmh 29.65 in1004.1 mb - 0.00 in0.0 mm 0.00 in0.0 mm
01:50 PM 91.9°F33.3°C 54.1°F12.3°C 28% 3.5 mph ENE5.6 kmh ENE 3.5 mph5.6 kmh 29.65 in1004.1 mb - 0.00 in0.0 mm 0.00 in0.0 mm
01:55 PM 92.1°F33.4°C 54.3°F12.4°C 28% 4.6 mph ENE7.4 kmh ENE 4.6 mph7.4 kmh 29.65 in1004.1 mb - 0.00 in0.0 mm 0.00 in0.0 mm
02:00 PM 92.3°F33.5°C 53.5°F11.9°C 27% 3.5 mph NNE5.6 kmh NNE 4.6 mph7.4 kmh 29.65 in1004.1 mb - 0.00 in0.0 mm 0.00 in0.0 mm
02:10 PM 91.8°F33.2°C 54.0°F12.2°C 28% 4.6 mph NNW7.4 kmh NNW 5.8 mph9.3 kmh 29.64 in1003.7 mb - 0.00 in0.0 mm 0.00 in0.0 mm
02:15 PM 91.2°F32.9°C 52.6°F11.4°C 27% 4.6 mph NNW7.4 kmh NNW 5.8 mph9.3 kmh 29.64 in1003.7 mb - 0.00 in0.0 mm 0.00 in0.0 mm
02:20 PM 91.7°F33.2°C 54.0°F12.2°C 28% 3.5 mph N5.6 kmh N 2.3 mph3.7 kmh 29.64 in1003.7 mb - 0.00 in0.0 mm 0.00 in0.0 mm
02:25 PM 92.1°F33.4°C 54.3°F12.4°C 28% 2.3 mph NNE3.7 kmh NNE 3.5 mph5.6 kmh 29.64 in1003.7 mb - 0.00 in0.0 mm 0.00 in0.0 mm
02:30 PM 91.8°F33.2°C 54.0°F12.2°C 28% 4.6 mph NE7.4 kmh NE 4.6 mph7.4 kmh 29.64 in1003.7 mb - 0.00 in0.0 mm 0.00 in0.0 mm
02:35 PM 90.9°F32.7°C 54.2°F12.3°C 29% 3.5 mph ENE5.6 kmh ENE 3.5 mph5.6 kmh 29.64 in1003.7 mb - 0.00 in0.0 mm 0.00 in0.0 mm
02:40 PM 90.3°F32.4°C 51.8°F11.0°C 27% 2.3 mph ENE3.7 kmh ENE 3.5 mph5.6 kmh 29.64 in1003.7 mb - 0.00 in0.0 mm 0.00 in0.0 mm
02:45 PM 89.6°F32.0°C 52.2°F11.2°C 28% 2.3 mph ENE3.7 kmh ENE 2.3 mph3.7 kmh 29.64 in1003.7 mb - 0.00 in0.0 mm 0.00 in0.0 mm
02:50 PM 89.1°F31.7°C 52.7°F11.5°C 29% 2.3 mph ENE3.7 kmh ENE 3.5 mph5.6 kmh 29.64 in1003.7 mb - 0.00 in0.0 mm 0.00 in0.0 mm
02:55 PM 89.3°F31.8°C 52.9°F11.6°C 29% 3.5 mph ENE5.6 kmh ENE 3.5 mph5.6 kmh 29.64 in1003.7 mb - 0.00 in0.0 mm 0.00 in0.0 mm
03:00 PM 89.8°F32.1°C 53.3°F11.8°C 29% 3.5 mph N5.6 kmh N 3.5 mph5.6 kmh 29.64 in1003.7 mb - 0.00 in0.0 mm 0.00 in0.0 mm
03:10 PM 91.0°F32.8°C 54.4°F12.4°C 29% 2.3 mph S3.7 kmh S 4.6 mph7.4 kmh 29.64 in1003.7 mb - 0.00 in0.0 mm 0.00 in0.0 mm
03:15 PM 91.4°F33.0°C 53.7°F12.1°C 28% 2.3 mph NE3.7 kmh NE 3.5 mph5.6 kmh 29.63 in1003.4 mb - 0.00 in0.0 mm 0.00 in0.0 mm
03:20 PM 91.7°F33.2°C 54.9°F12.7°C 29% 2.3 mph NE3.7 kmh NE 3.5 mph5.6 kmh 29.63 in1003.4 mb - 0.00 in0.0 mm 0.00 in0.0 mm
03:25 PM 91.4°F33.0°C 53.7°F12.1°C 28% 3.5 mph ENE5.6 kmh ENE 3.5 mph5.6 kmh 29.63 in1003.4 mb - 0.00 in0.0 mm 0.00 in0.0 mm
03:30 PM 90.3°F32.4°C 53.7°F12.1°C 29% 2.3 mph ENE3.7 kmh ENE 3.5 mph5.6 kmh 29.63 in1003.4 mb - 0.00 in0.0 mm 0.00 in0.0 mm
03:35 PM 90.7°F32.6°C 54.1°F12.3°C 29% 2.3 mph NE3.7 kmh NE 2.3 mph3.7 kmh 29.63 in1003.4 mb - 0.00 in0.0 mm 0.00 in0.0 mm
03:40 PM 90.9°F32.7°C 54.2°F12.3°C 29% 2.3 mph NNE3.7 kmh NNE 3.5 mph5.6 kmh 29.63 in1003.4 mb - 0.00 in0.0 mm 0.00 in0.0 mm
03:45 PM 91.4°F33.0°C 53.7°F12.1°C 28% 1.2 mph NNE1.9 kmh NNE 2.3 mph3.7 kmh 29.63 in1003.4 mb - 0.00 in0.0 mm 0.00 in0.0 mm
03:50 PM 90.9°F32.7°C 52.3°F11.3°C 27% 4.6 mph NNE7.4 kmh NNE 5.8 mph9.3 kmh 29.62 in1003.0 mb - 0.00 in0.0 mm 0.00 in0.0 mm
03:55 PM 90.6°F32.6°C 52.1°F11.2°C 27% 4.6 mph N7.4 kmh N 5.8 mph9.3 kmh 29.62 in1003.0 mb - 0.00 in0.0 mm 0.00 in0.0 mm
04:00 PM 91.0°F32.8°C 52.4°F11.3°C 27% 3.5 mph NNE5.6 kmh NNE 3.5 mph5.6 kmh 29.62 in1003.0 mb - 0.00 in0.0 mm 0.00 in0.0 mm
04:10 PM 91.0°F32.8°C 53.4°F11.9°C 28% 2.3 mph NNE3.7 kmh NNE 2.3 mph3.7 kmh 29.62 in1003.0 mb - 0.00 in0.0 mm 0.00 in0.0 mm
04:15 PM 90.6°F32.6°C 53.1°F11.7°C 28% 3.5 mph NNE5.6 kmh NNE 4.6 mph7.4 kmh 29.62 in1003.0 mb - 0.00 in0.0 mm 0.00 in0.0 mm
04:20 PM 90.5°F32.5°C 52.9°F11.6°C 28% 3.5 mph NE5.6 kmh NE 4.6 mph7.4 kmh 29.62 in1003.0 mb - 0.00 in0.0 mm 0.00 in0.0 mm
04:25 PM 90.1°F32.3°C 52.6°F11.4°C 28% 3.5 mph NW5.6 kmh NW 3.5 mph5.6 kmh 29.62 in1003.0 mb - 0.00 in0.0 mm 0.00 in0.0 mm
04:30 PM 90.3°F32.4°C 52.8°F11.6°C 28% 2.3 mph ENE3.7 kmh ENE 2.3 mph3.7 kmh 29.63 in1003.4 mb - 0.00 in0.0 mm 0.00 in0.0 mm
04:35 PM 90.3°F32.4°C 52.8°F11.6°C 28% 1.2 mph NE1.9 kmh NE 2.3 mph3.7 kmh 29.63 in1003.4 mb - 0.00 in0.0 mm 0.00 in0.0 mm
04:40 PM 90.0°F32.2°C 52.5°F11.4°C 28% 3.5 mph ENE5.6 kmh ENE 4.6 mph7.4 kmh 29.63 in1003.4 mb - 0.00 in0.0 mm 0.00 in0.0 mm
04:45 PM 89.8°F32.1°C 53.3°F11.8°C 29% 2.3 mph ENE3.7 kmh ENE 3.5 mph5.6 kmh 29.62 in1003.0 mb - 0.00 in0.0 mm 0.00 in0.0 mm
04:50 PM 89.7°F32.1°C 52.3°F11.3°C 28% 2.3 mph NE3.7 kmh NE 3.5 mph5.6 kmh 29.62 in1003.0 mb - 0.00 in0.0 mm 0.00 in0.0 mm
04:55 PM 89.6°F32.0°C 53.1°F11.7°C 29% 2.3 mph NNE3.7 kmh NNE 3.5 mph5.6 kmh 29.62 in1003.0 mb - 0.00 in0.0 mm 0.00 in0.0 mm
05:00 PM 89.6°F32.0°C 53.1°F11.7°C 29% 2.3 mph NE3.7 kmh NE 2.3 mph3.7 kmh 29.62 in1003.0 mb - 0.00 in0.0 mm 0.00 in0.0 mm
05:10 PM 89.3°F31.8°C 52.8°F11.6°C 29% 2.3 mph ENE3.7 kmh ENE 2.3 mph3.7 kmh 29.62 in1003.0 mb - 0.00 in0.0 mm 0.00 in0.0 mm
05:15 PM 89.1°F31.7°C 53.6°F12.0°C 30% 3.5 mph NE5.6 kmh NE 3.5 mph5.6 kmh 29.62 in1003.0 mb - 0.00 in0.0 mm 0.00 in0.0 mm
05:20 PM 89.1°F31.7°C 53.6°F12.0°C 30% 1.2 mph ENE1.9 kmh ENE 3.5 mph5.6 kmh 29.62 in1003.0 mb - 0.00 in0.0 mm 0.00 in0.0 mm
05:25 PM 88.7°F31.5°C 53.3°F11.8°C 30% Calm Calm 2.3 mph3.7 kmh 29.62 in1003.0 mb - 0.00 in0.0 mm 0.00 in0.0 mm
05:30 PM 88.2°F31.2°C 52.8°F11.6°C 30% 2.3 mph N3.7 kmh N 2.3 mph3.7 kmh 29.62 in1003.0 mb - 0.00 in0.0 mm 0.00 in0.0 mm
05:35 PM 87.6°F30.9°C 53.2°F11.8°C 31% Calm Calm -- 29.61 in1002.7 mb - 0.00 in0.0 mm 0.00 in0.0 mm
05:40 PM 86.5°F30.3°C 54.0°F12.2°C 33% 1.2 mph NNE1.9 kmh NNE 2.3 mph3.7 kmh 29.61 in1002.7 mb - 0.00 in0.0 mm 0.00 in0.0 mm
05:45 PM 86.2°F30.1°C 53.8°F12.1°C 33% 1.2 mph NE1.9 kmh NE 2.3 mph3.7 kmh 29.62 in1003.0 mb - 0.00 in0.0 mm 0.00 in0.0 mm
05:50 PM 85.8°F29.9°C 54.9°F12.7°C 35% Calm Calm 1.2 mph1.9 kmh 29.62 in1003.0 mb - 0.00 in0.0 mm 0.00 in0.0 mm
05:55 PM 84.9°F29.4°C 55.0°F12.8°C 36% Calm Calm -- 29.62 in1003.0 mb - 0.00 in0.0 mm 0.00 in0.0 mm
06:00 PM 84.4°F29.1°C 55.3°F12.9°C 37% Calm Calm -- 29.62 in1003.0 mb - 0.00 in0.0 mm 0.00 in0.0 mm
06:10 PM 82.8°F28.2°C 58.0°F14.4°C 43% Calm Calm -- 29.62 in1003.0 mb - 0.00 in0.0 mm 0.00 in0.0 mm
06:15 PM 81.9°F27.7°C 57.9°F14.4°C 44% Calm Calm -- 29.62 in1003.0 mb - 0.00 in0.0 mm 0.00 in0.0 mm
06:20 PM 81.4°F27.4°C 58.1°F14.5°C 45% Calm Calm -- 29.62 in1003.0 mb - 0.00 in0.0 mm 0.00 in0.0 mm
06:25 PM 80.8°F27.1°C 57.5°F14.2°C 45% Calm Calm -- 29.62 in1003.0 mb - 0.00 in0.0 mm 0.00 in0.0 mm
06:30 PM 80.1°F26.7°C 58.0°F14.4°C 47% Calm Calm -- 29.62 in1003.0 mb - 0.00 in0.0 mm 0.00 in0.0 mm
06:35 PM 79.7°F26.5°C 58.3°F14.6°C 48% Calm Calm -- 29.62 in1003.0 mb - 0.00 in0.0 mm 0.00 in0.0 mm
06:40 PM 78.5°F25.8°C 57.2°F14.0°C 48% Calm Calm -- 29.62 in1003.0 mb - 0.00 in0.0 mm 0.00 in0.0 mm
06:45 PM 78.0°F25.6°C 57.3°F14.1°C 49% Calm Calm -- 29.62 in1003.0 mb - 0.00 in0.0 mm 0.00 in0.0 mm
06:50 PM 77.1°F25.1°C 56.4°F13.6°C 49% Calm Calm -- 29.62 in1003.0 mb - 0.00 in0.0 mm 0.00 in0.0 mm
06:55 PM 76.5°F24.7°C 56.4°F13.6°C 50% Calm Calm -- 29.62 in1003.0 mb - 0.00 in0.0 mm 0.00 in0.0 mm
07:00 PM 75.6°F24.2°C 55.6°F13.1°C 50% Calm Calm -- 29.62 in1003.0 mb - 0.00 in0.0 mm 0.00 in0.0 mm
07:10 PM 74.9°F23.8°C 56.6°F13.7°C 53% Calm Calm -- 29.62 in1003.0 mb - 0.00 in0.0 mm 0.00 in0.0 mm
07:15 PM 74.4°F23.6°C 56.7°F13.7°C 54% Calm Calm -- 29.62 in1003.0 mb - 0.00 in0.0 mm 0.00 in0.0 mm
07:20 PM 73.9°F23.3°C 56.2°F13.4°C 54% Calm Calm -- 29.62 in1003.0 mb - 0.00 in0.0 mm 0.00 in0.0 mm
07:25 PM 73.4°F23.0°C 56.2°F13.4°C 55% Calm Calm -- 29.62 in1003.0 mb - 0.00 in0.0 mm 0.00 in0.0 mm
07:30 PM 73.0°F22.8°C 55.9°F13.3°C 55% Calm Calm -- 29.63 in1003.4 mb - 0.00 in0.0 mm 0.00 in0.0 mm
07:35 PM 72.3°F22.4°C 56.2°F13.4°C 57% Calm Calm -- 29.64 in1003.7 mb - 0.00 in0.0 mm 0.00 in0.0 mm
07:40 PM 72.0°F22.2°C 56.0°F13.3°C 57% 1.2 mph NE1.9 kmh NE 1.2 mph1.9 kmh 29.64 in1003.7 mb - 0.00 in0.0 mm 0.00 in0.0 mm
07:45 PM 71.8°F22.1°C 55.7°F13.2°C 57% Calm Calm -- 29.64 in1003.7 mb - 0.00 in0.0 mm 0.00 in0.0 mm
07:50 PM 71.3°F21.8°C 55.8°F13.2°C 58% Calm Calm -- 29.64 in1003.7 mb - 0.00 in0.0 mm 0.00 in0.0 mm
07:55 PM 71.1°F21.7°C 56.0°F13.3°C 59% Calm Calm -- 29.64 in1003.7 mb - 0.00 in0.0 mm 0.00 in0.0 mm
08:00 PM 70.7°F21.5°C 55.7°F13.2°C 59% Calm Calm -- 29.64 in1003.7 mb - 0.00 in0.0 mm 0.00 in0.0 mm
08:10 PM 69.9°F21.1°C 55.8°F13.2°C 61% Calm Calm -- 29.64 in1003.7 mb - 0.00 in0.0 mm 0.00 in0.0 mm
08:15 PM 69.1°F20.6°C 57.2°F14.0°C 66% 2.3 mph NNW3.7 kmh NNW 2.3 mph3.7 kmh 29.64 in1003.7 mb - 0.00 in0.0 mm 0.00 in0.0 mm
08:20 PM 69.0°F20.6°C 55.9°F13.3°C 63% 1.2 mph NNW1.9 kmh NNW 1.2 mph1.9 kmh 29.64 in1003.7 mb - 0.00 in0.0 mm 0.00 in0.0 mm
08:25 PM 69.1°F20.6°C 56.4°F13.6°C 64% 1.2 mph NNW1.9 kmh NNW 1.2 mph1.9 kmh 29.64 in1003.7 mb - 0.00 in0.0 mm 0.00 in0.0 mm
08:30 PM 68.9°F20.5°C 55.8°F13.2°C 63% Calm Calm -- 29.64 in1003.7 mb - 0.00 in0.0 mm 0.00 in0.0 mm
08:35 PM 68.7°F20.4°C 55.6°F13.1°C 63% Calm Calm 1.2 mph1.9 kmh 29.64 in1003.7 mb - 0.00 in0.0 mm 0.00 in0.0 mm
08:40 PM 68.4°F20.2°C 55.3°F12.9°C 63% 1.2 mph NNW1.9 kmh NNW 2.3 mph3.7 kmh 29.64 in1003.7 mb - 0.00 in0.0 mm 0.00 in0.0 mm
08:45 PM 68.4°F20.2°C 55.3°F12.9°C 63% 1.2 mph NNW1.9 kmh NNW 1.2 mph1.9 kmh 29.64 in1003.7 mb - 0.00 in0.0 mm 0.00 in0.0 mm
08:50 PM 68.4°F20.2°C 55.7°F13.2°C 64% Calm Calm 1.2 mph1.9 kmh 29.64 in1003.7 mb - 0.00 in0.0 mm 0.00 in0.0 mm
08:55 PM 68.4°F20.2°C 56.1°F13.4°C 65% 1.2 mph NNW1.9 kmh NNW 2.3 mph3.7 kmh 29.64 in1003.7 mb - 0.00 in0.0 mm 0.00 in0.0 mm
09:00 PM 68.4°F20.2°C 55.7°F13.2°C 64% 1.2 mph NNW1.9 kmh NNW 1.2 mph1.9 kmh 29.64 in1003.7 mb - 0.00 in0.0 mm 0.00 in0.0 mm
09:10 PM 67.8°F19.9°C 55.6°F13.1°C 65% 1.2 mph NNW1.9 kmh NNW 2.3 mph3.7 kmh 29.64 in1003.7 mb - 0.00 in0.0 mm 0.00 in0.0 mm
09:15 PM 67.6°F19.8°C 55.5°F13.1°C 65% 1.2 mph NNW1.9 kmh NNW 1.2 mph1.9 kmh 29.64 in1003.7 mb - 0.00 in0.0 mm 0.00 in0.0 mm
09:20 PM 67.4°F19.7°C 55.3°F12.9°C 65% Calm Calm -- 29.64 in1003.7 mb - 0.00 in0.0 mm 0.00 in0.0 mm
09:25 PM 67.3°F19.6°C 55.5°F13.1°C 66% 1.2 mph NNW1.9 kmh NNW 1.2 mph1.9 kmh 29.64 in1003.7 mb - 0.00 in0.0 mm 0.00 in0.0 mm
09:30 PM 67.1°F19.5°C 55.4°F13.0°C 66% Calm Calm -- 29.64 in1003.7 mb - 0.00 in0.0 mm 0.00 in0.0 mm
09:35 PM 67.1°F19.5°C 55.8°F13.2°C 67% 1.2 mph NNW1.9 kmh NNW 1.2 mph1.9 kmh 29.63 in1003.4 mb - 0.00 in0.0 mm 0.00 in0.0 mm
09:40 PM 66.8°F19.3°C 55.5°F13.1°C 67% Calm Calm 1.2 mph1.9 kmh 29.63 in1003.4 mb - 0.00 in0.0 mm 0.00 in0.0 mm
09:45 PM 66.7°F19.3°C 55.8°F13.2°C 68% 2.3 mph NNW3.7 kmh NNW 3.5 mph5.6 kmh 29.64 in1003.7 mb - 0.00 in0.0 mm 0.00 in0.0 mm
09:50 PM 66.8°F19.3°C 55.5°F13.1°C 67% 3.5 mph NNW5.6 kmh NNW 3.5 mph5.6 kmh 29.64 in1003.7 mb - 0.00 in0.0 mm 0.00 in0.0 mm
09:55 PM 67.5°F19.7°C 55.7°F13.2°C 66% 2.3 mph NNW3.7 kmh NNW 2.3 mph3.7 kmh 29.64 in1003.7 mb - 0.00 in0.0 mm 0.00 in0.0 mm
10:00 PM 67.5°F19.7°C 55.7°F13.2°C 66% 2.3 mph NNW3.7 kmh NNW 2.3 mph3.7 kmh 29.64 in1003.7 mb - 0.00 in0.0 mm 0.00 in0.0 mm
10:15 PM 68.8°F20.4°C 56.5°F13.6°C 65% 2.3 mph N3.7 kmh N 3.5 mph5.6 kmh 29.65 in1004.1 mb - 0.00 in0.0 mm 0.00 in0.0 mm
10:20 PM 68.7°F20.4°C 56.5°F13.6°C 65% 1.2 mph N1.9 kmh N 2.3 mph3.7 kmh 29.65 in1004.1 mb - 0.00 in0.0 mm 0.00 in0.0 mm
10:30 PM 68.4°F20.2°C 56.6°F13.7°C 66% 2.3 mph N3.7 kmh N 2.3 mph3.7 kmh 29.65 in1004.1 mb - 0.00 in0.0 mm 0.00 in0.0 mm
10:45 PM 67.8°F19.9°C 56.4°F13.6°C 67% 1.2 mph NNW1.9 kmh NNW 1.2 mph1.9 kmh 29.65 in1004.1 mb - 0.00 in0.0 mm 0.00 in0.0 mm
10:50 PM 67.6°F19.8°C 56.7°F13.7°C 68% 1.2 mph N1.9 kmh N 2.3 mph3.7 kmh 29.65 in1004.1 mb - 0.00 in0.0 mm 0.00 in0.0 mm
10:55 PM 67.5°F19.7°C 56.5°F13.6°C 68% 2.3 mph NNE3.7 kmh NNE 3.5 mph5.6 kmh 29.65 in1004.1 mb - 0.00 in0.0 mm 0.00 in0.0 mm
11:00 PM 67.3°F19.6°C 56.4°F13.6°C 68% 2.3 mph NNE3.7 kmh NNE 2.3 mph3.7 kmh 29.65 in1004.1 mb - 0.00 in0.0 mm 0.00 in0.0 mm
11:10 PM 67.3°F19.6°C 56.4°F13.6°C 68% 2.3 mph N3.7 kmh N 3.5 mph5.6 kmh 29.65 in1004.1 mb - 0.00 in0.0 mm 0.00 in0.0 mm
11:20 PM 67.6°F19.8°C 56.7°F13.7°C 68% 2.3 mph N3.7 kmh N 2.3 mph3.7 kmh 29.65 in1004.1 mb - 0.00 in0.0 mm 0.00 in0.0 mm
11:25 PM 67.5°F19.7°C 56.5°F13.6°C 68% 2.3 mph NNW3.7 kmh NNW 3.5 mph5.6 kmh 29.65 in1004.1 mb - 0.00 in0.0 mm 0.00 in0.0 mm
11:40 PM 68.0°F20.0°C 56.2°F13.4°C 66% 2.3 mph NE3.7 kmh NE 3.5 mph5.6 kmh 29.65 in1004.1 mb - 0.00 in0.0 mm 0.00 in0.0 mm
11:45 PM 67.9°F19.9°C 56.5°F13.6°C 67% 2.3 mph NNE3.7 kmh NNE 2.3 mph3.7 kmh 29.65 in1004.1 mb - 0.00 in0.0 mm 0.00 in0.0 mm
11:50 PM 68.2°F20.1°C 56.8°F13.8°C 67% 2.3 mph NE3.7 kmh NE 3.5 mph5.6 kmh 29.65 in1004.1 mb - 0.00 in0.0 mm 0.00 in0.0 mm
11:55 PM 68.4°F20.2°C 57.4°F14.1°C 68% 2.3 mph N3.7 kmh N 3.5 mph5.6 kmh 29.65 in1004.1 mb - 0.00 in0.0 mm 0.00 in0.0 mm